sensor_id;sensor_type;location;lat;lon;timestamp;P1;durP1;ratioP1;P2;durP2;ratioP2
69890;SDS011;57170;43.964;21.262;2023-04-03T00:01:58;18.15;;;11.23;;
69890;SDS011;57170;43.964;21.262;2023-04-03T00:04:24;13.07;;;11.65;;
69890;SDS011;57170;43.964;21.262;2023-04-03T00:06:50;16.08;;;11.52;;
69890;SDS011;57170;43.964;21.262;2023-04-03T00:09:16;13.30;;;11.40;;
69890;SDS011;57170;43.964;21.262;2023-04-03T00:11:42;18.30;;;13.07;;
69890;SDS011;57170;43.964;21.262;2023-04-03T00:14:08;22.33;;;14.02;;
69890;SDS011;57170;43.964;21.262;2023-04-03T00:16:35;23.63;;;15.32;;
69890;SDS011;57170;43.964;21.262;2023-04-03T00:19:01;19.73;;;14.50;;
69890;SDS011;57170;43.964;21.262;2023-04-03T00:21:27;19.63;;;15.48;;
69890;SDS011;57170;43.964;21.262;2023-04-03T00:23:53;19.25;;;14.45;;
69890;SDS011;57170;43.964;21.262;2023-04-03T00:26:19;25.13;;;15.50;;
69890;SDS011;57170;43.964;21.262;2023-04-03T00:28:45;18.25;;;13.32;;
69890;SDS011;57170;43.964;21.262;2023-04-03T00:31:13;19.50;;;14.48;;
69890;SDS011;57170;43.964;21.262;2023-04-03T00:33:40;20.73;;;14.10;;
69890;SDS011;57170;43.964;21.262;2023-04-03T00:36:07;16.88;;;13.77;;
69890;SDS011;57170;43.964;21.262;2023-04-03T00:38:34;15.52;;;12.65;;
69890;SDS011;57170;43.964;21.262;2023-04-03T00:41:00;20.63;;;15.43;;
69890;SDS011;57170;43.964;21.262;2023-04-03T00:43:27;23.60;;;16.48;;
69890;SDS011;57170;43.964;21.262;2023-04-03T00:45:54;21.05;;;17.48;;
69890;SDS011;57170;43.964;21.262;2023-04-03T00:48:31;22.20;;;17.70;;
69890;SDS011;57170;43.964;21.262;2023-04-03T00:50:57;24.10;;;16.17;;
69890;SDS011;57170;43.964;21.262;2023-04-03T00:53:26;21.17;;;16.00;;
69890;SDS011;57170;43.964;21.262;2023-04-03T00:55:53;20.58;;;15.30;;
69890;SDS011;57170;43.964;21.262;2023-04-03T00:58:20;34.22;;;23.60;;
69890;SDS011;57170;43.964;21.262;2023-04-03T01:00:50;31.50;;;21.67;;
69890;SDS011;57170;43.964;21.262;2023-04-03T01:03:21;24.52;;;16.83;;
69890;SDS011;57170;43.964;21.262;2023-04-03T01:05:48;21.85;;;15.73;;
69890;SDS011;57170;43.964;21.262;2023-04-03T01:08:14;30.48;;;20.33;;
69890;SDS011;57170;43.964;21.262;2023-04-03T01:10:40;31.58;;;22.23;;
69890;SDS011;57170;43.964;21.262;2023-04-03T01:16:06;27.45;;;21.95;;
69890;SDS011;57170;43.964;21.262;2023-04-03T01:18:32;39.65;;;22.33;;
69890;SDS011;57170;43.964;21.262;2023-04-03T01:21:08;31.50;;;24.27;;
69890;SDS011;57170;43.964;21.262;2023-04-03T01:26:03;35.40;;;24.95;;
69890;SDS011;57170;43.964;21.262;2023-04-03T01:28:33;35.53;;;26.45;;
69890;SDS011;57170;43.964;21.262;2023-04-03T01:33:45;35.65;;;25.08;;
69890;SDS011;57170;43.964;21.262;2023-04-03T01:36:14;29.70;;;23.15;;
69890;SDS011;57170;43.964;21.262;2023-04-03T01:38:40;26.40;;;19.40;;
69890;SDS011;57170;43.964;21.262;2023-04-03T01:41:06;27.42;;;19.92;;
69890;SDS011;57170;43.964;21.262;2023-04-03T01:43:32;22.00;;;16.55;;
69890;SDS011;57170;43.964;21.262;2023-04-03T01:45:58;35.55;;;22.30;;
69890;SDS011;57170;43.964;21.262;2023-04-03T01:48:24;34.08;;;23.83;;
69890;SDS011;57170;43.964;21.262;2023-04-03T01:50:50;26.90;;;18.20;;
69890;SDS011;57170;43.964;21.262;2023-04-03T01:53:16;17.02;;;14.68;;
69890;SDS011;57170;43.964;21.262;2023-04-03T01:55:42;17.48;;;12.70;;
69890;SDS011;57170;43.964;21.262;2023-04-03T01:58:09;16.35;;;11.38;;
69890;SDS011;57170;43.964;21.262;2023-04-03T02:00:35;24.52;;;17.70;;
69890;SDS011;57170;43.964;21.262;2023-04-03T02:03:01;24.85;;;14.10;;
69890;SDS011;57170;43.964;21.262;2023-04-03T02:05:27;23.40;;;16.98;;
69890;SDS011;57170;43.964;21.262;2023-04-03T02:07:53;20.65;;;14.93;;
69890;SDS011;57170;43.964;21.262;2023-04-03T02:10:20;20.45;;;14.15;;
69890;SDS011;57170;43.964;21.262;2023-04-03T02:12:46;18.25;;;13.63;;
69890;SDS011;57170;43.964;21.262;2023-04-03T02:15:12;23.33;;;15.52;;
69890;SDS011;57170;43.964;21.262;2023-04-03T02:17:38;21.80;;;13.90;;
69890;SDS011;57170;43.964;21.262;2023-04-03T02:20:04;16.77;;;12.88;;
69890;SDS011;57170;43.964;21.262;2023-04-03T02:22:30;17.88;;;12.52;;
69890;SDS011;57170;43.964;21.262;2023-04-03T02:24:57;16.38;;;12.32;;
69890;SDS011;57170;43.964;21.262;2023-04-03T02:27:23;17.08;;;13.18;;
69890;SDS011;57170;43.964;21.262;2023-04-03T02:29:49;19.55;;;13.65;;
69890;SDS011;57170;43.964;21.262;2023-04-03T02:32:15;17.30;;;11.90;;
69890;SDS011;57170;43.964;21.262;2023-04-03T02:34:41;19.60;;;14.63;;
69890;SDS011;57170;43.964;21.262;2023-04-03T02:37:07;17.10;;;12.88;;
69890;SDS011;57170;43.964;21.262;2023-04-03T02:39:33;21.65;;;15.05;;
69890;SDS011;57170;43.964;21.262;2023-04-03T02:41:59;19.73;;;12.63;;
69890;SDS011;57170;43.964;21.262;2023-04-03T02:44:26;18.75;;;13.98;;
69890;SDS011;57170;43.964;21.262;2023-04-03T02:46:52;18.63;;;14.65;;
69890;SDS011;57170;43.964;21.262;2023-04-03T02:49:18;17.48;;;13.80;;
69890;SDS011;57170;43.964;21.262;2023-04-03T02:51:44;22.48;;;14.70;;
69890;SDS011;57170;43.964;21.262;2023-04-03T02:54:10;18.73;;;13.55;;
69890;SDS011;57170;43.964;21.262;2023-04-03T02:56:36;21.70;;;14.80;;
69890;SDS011;57170;43.964;21.262;2023-04-03T02:59:03;24.77;;;17.13;;
69890;SDS011;57170;43.964;21.262;2023-04-03T03:01:30;22.35;;;18.48;;
69890;SDS011;57170;43.964;21.262;2023-04-03T03:03:58;25.27;;;19.25;;
69890;SDS011;57170;43.964;21.262;2023-04-03T03:06:24;21.63;;;17.75;;
69890;SDS011;57170;43.964;21.262;2023-04-03T03:08:50;21.30;;;15.60;;
69890;SDS011;57170;43.964;21.262;2023-04-03T03:11:16;20.48;;;14.63;;
69890;SDS011;57170;43.964;21.262;2023-04-03T03:13:42;23.10;;;16.10;;
69890;SDS011;57170;43.964;21.262;2023-04-03T03:16:08;23.80;;;16.27;;
69890;SDS011;57170;43.964;21.262;2023-04-03T03:18:35;21.50;;;16.63;;
69890;SDS011;57170;43.964;21.262;2023-04-03T03:21:02;21.63;;;14.13;;
69890;SDS011;57170;43.964;21.262;2023-04-03T03:23:29;17.48;;;14.23;;
69890;SDS011;57170;43.964;21.262;2023-04-03T03:25:56;20.30;;;13.40;;
69890;SDS011;57170;43.964;21.262;2023-04-03T03:28:22;17.30;;;13.52;;
69890;SDS011;57170;43.964;21.262;2023-04-03T03:30:48;21.15;;;14.35;;
69890;SDS011;57170;43.964;21.262;2023-04-03T03:33:14;19.20;;;12.65;;
69890;SDS011;57170;43.964;21.262;2023-04-03T03:35:42;18.77;;;13.95;;
69890;SDS011;57170;43.964;21.262;2023-04-03T03:38:08;16.80;;;13.48;;
69890;SDS011;57170;43.964;21.262;2023-04-03T03:40:34;21.67;;;16.08;;
69890;SDS011;57170;43.964;21.262;2023-04-03T03:43:01;17.27;;;13.95;;
69890;SDS011;57170;43.964;21.262;2023-04-03T03:45:27;25.35;;;15.40;;
69890;SDS011;57170;43.964;21.262;2023-04-03T03:47:53;19.80;;;15.30;;
69890;SDS011;57170;43.964;21.262;2023-04-03T03:50:19;20.27;;;15.68;;
69890;SDS011;57170;43.964;21.262;2023-04-03T03:52:45;24.83;;;16.55;;
69890;SDS011;57170;43.964;21.262;2023-04-03T03:55:11;27.52;;;18.83;;
69890;SDS011;57170;43.964;21.262;2023-04-03T03:57:37;32.13;;;20.30;;
69890;SDS011;57170;43.964;21.262;2023-04-03T04:00:03;42.75;;;28.10;;
69890;SDS011;57170;43.964;21.262;2023-04-03T04:02:30;44.67;;;27.45;;
69890;SDS011;57170;43.964;21.262;2023-04-03T04:04:56;39.22;;;31.50;;
69890;SDS011;57170;43.964;21.262;2023-04-03T04:07:22;51.45;;;37.97;;
69890;SDS011;57170;43.964;21.262;2023-04-03T04:09:48;65.15;;;44.97;;
69890;SDS011;57170;43.964;21.262;2023-04-03T04:12:14;57.00;;;38.15;;
69890;SDS011;57170;43.964;21.262;2023-04-03T04:14:40;38.50;;;27.13;;
69890;SDS011;57170;43.964;21.262;2023-04-03T04:17:07;34.88;;;25.48;;
69890;SDS011;57170;43.964;21.262;2023-04-03T04:19:33;38.67;;;24.13;;
69890;SDS011;57170;43.964;21.262;2023-04-03T04:21:59;25.85;;;19.38;;
69890;SDS011;57170;43.964;21.262;2023-04-03T04:24:25;23.20;;;20.50;;
69890;SDS011;57170;43.964;21.262;2023-04-03T04:26:51;32.42;;;22.52;;
69890;SDS011;57170;43.964;21.262;2023-04-03T04:29:17;37.97;;;27.63;;
69890;SDS011;57170;43.964;21.262;2023-04-03T04:31:43;32.50;;;21.52;;
69890;SDS011;57170;43.964;21.262;2023-04-03T04:34:09;37.22;;;25.75;;
69890;SDS011;57170;43.964;21.262;2023-04-03T04:36:36;39.28;;;27.77;;
69890;SDS011;57170;43.964;21.262;2023-04-03T04:39:02;47.97;;;33.05;;
69890;SDS011;57170;43.964;21.262;2023-04-03T04:41:28;52.05;;;33.55;;
69890;SDS011;57170;43.964;21.262;2023-04-03T04:43:54;43.97;;;31.48;;
69890;SDS011;57170;43.964;21.262;2023-04-03T04:46:20;47.80;;;31.67;;
69890;SDS011;57170;43.964;21.262;2023-04-03T04:48:46;46.50;;;29.42;;
69890;SDS011;57170;43.964;21.262;2023-04-03T04:51:13;38.67;;;28.55;;
69890;SDS011;57170;43.964;21.262;2023-04-03T04:53:39;38.45;;;27.67;;
69890;SDS011;57170;43.964;21.262;2023-04-03T04:56:06;29.92;;;23.17;;
69890;SDS011;57170;43.964;21.262;2023-04-03T04:58:32;32.50;;;26.77;;
69890;SDS011;57170;43.964;21.262;2023-04-03T05:00:59;34.85;;;25.50;;
69890;SDS011;57170;43.964;21.262;2023-04-03T05:03:25;38.72;;;29.52;;
69890;SDS011;57170;43.964;21.262;2023-04-03T05:05:51;36.15;;;28.40;;
69890;SDS011;57170;43.964;21.262;2023-04-03T05:08:17;46.72;;;35.50;;
69890;SDS011;57170;43.964;21.262;2023-04-03T05:10:44;44.05;;;33.33;;
69890;SDS011;57170;43.964;21.262;2023-04-03T05:13:10;39.10;;;31.60;;
69890;SDS011;57170;43.964;21.262;2023-04-03T05:15:36;39.17;;;31.48;;
69890;SDS011;57170;43.964;21.262;2023-04-03T05:18:02;39.42;;;30.95;;
69890;SDS011;57170;43.964;21.262;2023-04-03T05:20:29;37.25;;;27.77;;
69890;SDS011;57170;43.964;21.262;2023-04-03T05:22:56;38.85;;;29.75;;
69890;SDS011;57170;43.964;21.262;2023-04-03T05:25:22;39.97;;;30.75;;
69890;SDS011;57170;43.964;21.262;2023-04-03T05:27:48;35.50;;;29.77;;
69890;SDS011;57170;43.964;21.262;2023-04-03T05:30:14;35.85;;;29.25;;
69890;SDS011;57170;43.964;21.262;2023-04-03T05:32:41;47.13;;;34.45;;
69890;SDS011;57170;43.964;21.262;2023-04-03T05:35:07;54.28;;;38.17;;
69890;SDS011;57170;43.964;21.262;2023-04-03T05:37:33;58.58;;;40.72;;
69890;SDS011;57170;43.964;21.262;2023-04-03T05:39:59;66.88;;;44.03;;
69890;SDS011;57170;43.964;21.262;2023-04-03T05:42:26;65.38;;;45.80;;
69890;SDS011;57170;43.964;21.262;2023-04-03T05:44:52;71.63;;;47.65;;
69890;SDS011;57170;43.964;21.262;2023-04-03T05:47:18;71.07;;;49.42;;
69890;SDS011;57170;43.964;21.262;2023-04-03T05:49:44;69.60;;;46.17;;
69890;SDS011;57170;43.964;21.262;2023-04-03T05:54:43;67.05;;;44.85;;
69890;SDS011;57170;43.964;21.262;2023-04-03T05:57:11;64.70;;;43.35;;
69890;SDS011;57170;43.964;21.262;2023-04-03T05:59:37;61.17;;;44.08;;
69890;SDS011;57170;43.964;21.262;2023-04-03T06:02:03;87.65;;;54.75;;
69890;SDS011;57170;43.964;21.262;2023-04-03T06:04:30;69.97;;;45.13;;
69890;SDS011;57170;43.964;21.262;2023-04-03T06:06:56;63.00;;;44.55;;
69890;SDS011;57170;43.964;21.262;2023-04-03T06:09:24;63.10;;;43.72;;
69890;SDS011;57170;43.964;21.262;2023-04-03T06:11:51;60.58;;;41.85;;
69890;SDS011;57170;43.964;21.262;2023-04-03T06:14:17;60.50;;;40.30;;
69890;SDS011;57170;43.964;21.262;2023-04-03T06:16:44;61.97;;;40.08;;
69890;SDS011;57170;43.964;21.262;2023-04-03T06:19:11;69.47;;;42.67;;
69890;SDS011;57170;43.964;21.262;2023-04-03T06:21:37;61.72;;;41.00;;
69890;SDS011;57170;43.964;21.262;2023-04-03T06:24:04;55.70;;;37.97;;
69890;SDS011;57170;43.964;21.262;2023-04-03T06:26:30;56.42;;;38.90;;
69890;SDS011;57170;43.964;21.262;2023-04-03T06:28:57;57.45;;;37.22;;
69890;SDS011;57170;43.964;21.262;2023-04-03T06:31:23;51.75;;;35.45;;
69890;SDS011;57170;43.964;21.262;2023-04-03T06:33:49;52.88;;;35.38;;
69890;SDS011;57170;43.964;21.262;2023-04-03T06:36:15;52.95;;;35.40;;
69890;SDS011;57170;43.964;21.262;2023-04-03T06:38:45;50.20;;;35.30;;
69890;SDS011;57170;43.964;21.262;2023-04-03T06:41:11;65.55;;;44.30;;
69890;SDS011;57170;43.964;21.262;2023-04-03T06:43:37;51.25;;;38.30;;
69890;SDS011;57170;43.964;21.262;2023-04-03T06:46:03;69.63;;;46.28;;
69890;SDS011;57170;43.964;21.262;2023-04-03T06:48:30;61.85;;;41.67;;
69890;SDS011;57170;43.964;21.262;2023-04-03T06:50:56;73.60;;;46.60;;
69890;SDS011;57170;43.964;21.262;2023-04-03T06:53:22;61.50;;;42.03;;
69890;SDS011;57170;43.964;21.262;2023-04-03T06:55:48;59.75;;;41.25;;
69890;SDS011;57170;43.964;21.262;2023-04-03T06:58:15;61.03;;;38.15;;
69890;SDS011;57170;43.964;21.262;2023-04-03T07:00:42;56.65;;;36.80;;
69890;SDS011;57170;43.964;21.262;2023-04-03T07:03:08;52.60;;;33.17;;
69890;SDS011;57170;43.964;21.262;2023-04-03T07:05:34;55.03;;;37.22;;
69890;SDS011;57170;43.964;21.262;2023-04-03T07:08:00;59.38;;;40.70;;
69890;SDS011;57170;43.964;21.262;2023-04-03T07:10:27;60.40;;;38.08;;
69890;SDS011;57170;43.964;21.262;2023-04-03T07:12:53;52.40;;;35.42;;
69890;SDS011;57170;43.964;21.262;2023-04-03T07:15:19;54.42;;;36.47;;
69890;SDS011;57170;43.964;21.262;2023-04-03T07:17:45;50.35;;;35.00;;
69890;SDS011;57170;43.964;21.262;2023-04-03T07:20:11;59.72;;;39.28;;
69890;SDS011;57170;43.964;21.262;2023-04-03T07:22:38;65.63;;;42.30;;
69890;SDS011;57170;43.964;21.262;2023-04-03T07:25:04;59.83;;;38.38;;
69890;SDS011;57170;43.964;21.262;2023-04-03T07:27:32;61.22;;;38.85;;
69890;SDS011;57170;43.964;21.262;2023-04-03T07:29:58;61.88;;;38.28;;
69890;SDS011;57170;43.964;21.262;2023-04-03T07:32:24;56.95;;;35.95;;
69890;SDS011;57170;43.964;21.262;2023-04-03T07:34:50;55.95;;;35.08;;
69890;SDS011;57170;43.964;21.262;2023-04-03T07:37:16;51.78;;;36.25;;
69890;SDS011;57170;43.964;21.262;2023-04-03T07:39:43;52.30;;;35.22;;
69890;SDS011;57170;43.964;21.262;2023-04-03T07:42:10;56.53;;;36.42;;
69890;SDS011;57170;43.964;21.262;2023-04-03T07:44:37;57.80;;;37.63;;
69890;SDS011;57170;43.964;21.262;2023-04-03T07:47:03;60.30;;;39.58;;
69890;SDS011;57170;43.964;21.262;2023-04-03T07:49:29;54.50;;;37.03;;
69890;SDS011;57170;43.964;21.262;2023-04-03T07:51:56;60.17;;;37.45;;
69890;SDS011;57170;43.964;21.262;2023-04-03T07:54:23;55.40;;;35.42;;
69890;SDS011;57170;43.964;21.262;2023-04-03T07:56:49;61.67;;;38.78;;
69890;SDS011;57170;43.964;21.262;2023-04-03T07:59:15;52.20;;;33.75;;
69890;SDS011;57170;43.964;21.262;2023-04-03T08:01:41;53.40;;;33.85;;
69890;SDS011;57170;43.964;21.262;2023-04-03T08:04:07;53.50;;;36.65;;
69890;SDS011;57170;43.964;21.262;2023-04-03T08:06:33;56.03;;;34.30;;
69890;SDS011;57170;43.964;21.262;2023-04-03T08:09:02;48.55;;;33.65;;
69890;SDS011;57170;43.964;21.262;2023-04-03T08:11:29;54.50;;;36.22;;
69890;SDS011;57170;43.964;21.262;2023-04-03T08:13:56;51.70;;;34.65;;
69890;SDS011;57170;43.964;21.262;2023-04-03T08:16:22;49.92;;;33.90;;
69890;SDS011;57170;43.964;21.262;2023-04-03T08:18:51;56.13;;;34.95;;
69890;SDS011;57170;43.964;21.262;2023-04-03T08:21:17;46.75;;;33.33;;
69890;SDS011;57170;43.964;21.262;2023-04-03T08:23:43;47.97;;;33.80;;
69890;SDS011;57170;43.964;21.262;2023-04-03T08:26:11;51.42;;;32.97;;
69890;SDS011;57170;43.964;21.262;2023-04-03T08:28:37;50.67;;;37.20;;
69890;SDS011;57170;43.964;21.262;2023-04-03T08:31:07;56.75;;;37.45;;
69890;SDS011;57170;43.964;21.262;2023-04-03T08:33:36;58.57;;;36.80;;
69890;SDS011;57170;43.964;21.262;2023-04-03T08:36:03;64.47;;;41.45;;
69890;SDS011;57170;43.964;21.262;2023-04-03T08:38:30;64.78;;;45.72;;
69890;SDS011;57170;43.964;21.262;2023-04-03T08:41:01;68.20;;;47.33;;
69890;SDS011;57170;43.964;21.262;2023-04-03T08:46:05;54.80;;;33.83;;
69890;SDS011;57170;43.964;21.262;2023-04-03T08:48:33;53.22;;;36.05;;
69890;SDS011;57170;43.964;21.262;2023-04-03T08:51:02;54.42;;;33.80;;
69890;SDS011;57170;43.964;21.262;2023-04-03T08:53:30;51.47;;;37.00;;
69890;SDS011;57170;43.964;21.262;2023-04-03T08:55:57;50.83;;;36.55;;
69890;SDS011;57170;43.964;21.262;2023-04-03T08:58:24;73.00;;;47.70;;
69890;SDS011;57170;43.964;21.262;2023-04-03T09:00:53;56.15;;;40.58;;
69890;SDS011;57170;43.964;21.262;2023-04-03T09:03:21;63.65;;;47.47;;
69890;SDS011;57170;43.964;21.262;2023-04-03T09:10:40;48.38;;;34.35;;
69890;SDS011;57170;43.964;21.262;2023-04-03T09:15:33;39.53;;;29.73;;
69890;SDS011;57170;43.964;21.262;2023-04-03T09:18:04;39.28;;;29.75;;
69890;SDS011;57170;43.964;21.262;2023-04-03T09:20:36;40.85;;;29.90;;
69890;SDS011;57170;43.964;21.262;2023-04-03T09:23:13;45.92;;;33.58;;
69890;SDS011;57170;43.964;21.262;2023-04-03T09:25:41;33.80;;;25.13;;
69890;SDS011;57170;43.964;21.262;2023-04-03T09:28:08;43.03;;;30.27;;
69890;SDS011;57170;43.964;21.262;2023-04-03T09:30:35;32.75;;;26.02;;
69890;SDS011;57170;43.964;21.262;2023-04-03T09:33:02;32.35;;;24.83;;
69890;SDS011;57170;43.964;21.262;2023-04-03T09:35:29;35.78;;;29.33;;
69890;SDS011;57170;43.964;21.262;2023-04-03T09:40:39;28.30;;;23.27;;
69890;SDS011;57170;43.964;21.262;2023-04-03T09:45:51;29.20;;;22.92;;
69890;SDS011;57170;43.964;21.262;2023-04-03T09:48:19;30.83;;;23.90;;
69890;SDS011;57170;43.964;21.262;2023-04-03T09:53:29;47.40;;;33.85;;
69890;SDS011;57170;43.964;21.262;2023-04-03T09:55:55;32.20;;;23.65;;
69890;SDS011;57170;43.964;21.262;2023-04-03T09:58:29;30.13;;;22.75;;
69890;SDS011;57170;43.964;21.262;2023-04-03T10:00:57;33.03;;;26.92;;
69890;SDS011;57170;43.964;21.262;2023-04-03T10:03:33;46.85;;;33.17;;
69890;SDS011;57170;43.964;21.262;2023-04-03T10:06:00;41.75;;;29.92;;
69890;SDS011;57170;43.964;21.262;2023-04-03T10:08:32;40.90;;;30.25;;
69890;SDS011;57170;43.964;21.262;2023-04-03T10:11:15;34.63;;;26.40;;
69890;SDS011;57170;43.964;21.262;2023-04-03T10:16:12;31.95;;;24.25;;
69890;SDS011;57170;43.964;21.262;2023-04-03T10:18:42;24.67;;;19.60;;
69890;SDS011;57170;43.964;21.262;2023-04-03T10:21:13;28.15;;;21.20;;
69890;SDS011;57170;43.964;21.262;2023-04-03T10:23:44;31.17;;;24.38;;
69890;SDS011;57170;43.964;21.262;2023-04-03T10:31:37;24.27;;;19.55;;
69890;SDS011;57170;43.964;21.262;2023-04-03T10:46:52;37.22;;;28.35;;
69890;SDS011;57170;43.964;21.262;2023-04-03T10:56:56;36.88;;;27.05;;
69890;SDS011;57170;43.964;21.262;2023-04-03T10:59:36;41.15;;;30.30;;
69890;SDS011;57170;43.964;21.262;2023-04-03T11:02:27;54.40;;;32.97;;
69890;SDS011;57170;43.964;21.262;2023-04-03T11:04:56;45.40;;;34.97;;
69890;SDS011;57170;43.964;21.262;2023-04-03T11:07:26;45.58;;;32.97;;
69890;SDS011;57170;43.964;21.262;2023-04-03T11:10:15;40.55;;;30.65;;
69890;SDS011;57170;43.964;21.262;2023-04-03T11:13:30;40.45;;;31.30;;
69890;SDS011;57170;43.964;21.262;2023-04-03T11:15:31;40.83;;;30.65;;
69890;SDS011;57170;43.964;21.262;2023-04-03T11:18:00;48.47;;;34.60;;
69890;SDS011;57170;43.964;21.262;2023-04-03T11:20:27;44.78;;;34.00;;
69890;SDS011;57170;43.964;21.262;2023-04-03T11:23:01;40.53;;;30.95;;
69890;SDS011;57170;43.964;21.262;2023-04-03T11:25:29;48.88;;;35.97;;
69890;SDS011;57170;43.964;21.262;2023-04-03T11:27:59;47.72;;;35.38;;
69890;SDS011;57170;43.964;21.262;2023-04-03T11:35:37;52.22;;;38.95;;
69890;SDS011;57170;43.964;21.262;2023-04-03T11:38:10;50.42;;;35.72;;
69890;SDS011;57170;43.964;21.262;2023-04-03T11:40:40;43.45;;;31.20;;
69890;SDS011;57170;43.964;21.262;2023-04-03T11:43:28;43.55;;;32.45;;
69890;SDS011;57170;43.964;21.262;2023-04-03T11:50:54;38.80;;;29.80;;
69890;SDS011;57170;43.964;21.262;2023-04-03T11:53:28;41.72;;;32.63;;
69890;SDS011;57170;43.964;21.262;2023-04-03T11:55:56;34.00;;;29.23;;
69890;SDS011;57170;43.964;21.262;2023-04-03T11:58:29;36.50;;;29.40;;
69890;SDS011;57170;43.964;21.262;2023-04-03T12:00:59;38.33;;;26.73;;
69890;SDS011;57170;43.964;21.262;2023-04-03T12:05:53;32.33;;;26.45;;
69890;SDS011;57170;43.964;21.262;2023-04-03T12:08:30;39.20;;;26.40;;
69890;SDS011;57170;43.964;21.262;2023-04-03T12:13:35;38.03;;;23.35;;
69890;SDS011;57170;43.964;21.262;2023-04-03T12:16:02;24.33;;;19.25;;
69890;SDS011;57170;43.964;21.262;2023-04-03T12:20:58;20.77;;;17.25;;
69890;SDS011;57170;43.964;21.262;2023-04-03T12:23:28;21.25;;;15.98;;
69890;SDS011;57170;43.964;21.262;2023-04-03T12:26:06;25.15;;;18.00;;
69890;SDS011;57170;43.964;21.262;2023-04-03T12:28:44;15.75;;;12.20;;
69890;SDS011;57170;43.964;21.262;2023-04-03T12:31:12;20.40;;;15.50;;
69890;SDS011;57170;43.964;21.262;2023-04-03T12:33:43;18.95;;;14.90;;
69890;SDS011;57170;43.964;21.262;2023-04-03T12:36:15;17.75;;;13.68;;
69890;SDS011;57170;43.964;21.262;2023-04-03T12:41:38;19.00;;;14.68;;
69890;SDS011;57170;43.964;21.262;2023-04-03T12:44:15;18.42;;;13.90;;
69890;SDS011;57170;43.964;21.262;2023-04-03T12:46:50;21.05;;;15.18;;
69890;SDS011;57170;43.964;21.262;2023-04-03T12:49:38;22.70;;;15.15;;
69890;SDS011;57170;43.964;21.262;2023-04-03T12:54:45;20.48;;;14.85;;
69890;SDS011;57170;43.964;21.262;2023-04-03T12:57:24;29.05;;;19.27;;
69890;SDS011;57170;43.964;21.262;2023-04-03T12:59:51;22.40;;;15.70;;
69890;SDS011;57170;43.964;21.262;2023-04-03T13:02:21;23.15;;;16.30;;
69890;SDS011;57170;43.964;21.262;2023-04-03T13:04:49;18.83;;;15.18;;
69890;SDS011;57170;43.964;21.262;2023-04-03T13:07:23;25.13;;;15.70;;
69890;SDS011;57170;43.964;21.262;2023-04-03T13:12:32;16.38;;;13.57;;
69890;SDS011;57170;43.964;21.262;2023-04-03T13:15:00;15.63;;;11.63;;
69890;SDS011;57170;43.964;21.262;2023-04-03T13:17:29;30.67;;;16.73;;
69890;SDS011;57170;43.964;21.262;2023-04-03T13:19:55;24.13;;;19.52;;
69890;SDS011;57170;43.964;21.262;2023-04-03T13:24:47;21.17;;;16.48;;
69890;SDS011;57170;43.964;21.262;2023-04-03T13:27:14;26.13;;;17.92;;
69890;SDS011;57170;43.964;21.262;2023-04-03T13:29:41;25.55;;;20.08;;
69890;SDS011;57170;43.964;21.262;2023-04-03T13:32:07;27.73;;;21.42;;
69890;SDS011;57170;43.964;21.262;2023-04-03T13:34:42;22.38;;;17.92;;
69890;SDS011;57170;43.964;21.262;2023-04-03T13:40:02;20.55;;;15.98;;
69890;SDS011;57170;43.964;21.262;2023-04-03T13:42:37;25.90;;;17.37;;
69890;SDS011;57170;43.964;21.262;2023-04-03T13:47:41;39.03;;;24.95;;
69890;SDS011;57170;43.964;21.262;2023-04-03T13:50:28;30.75;;;21.17;;
69890;SDS011;57170;43.964;21.262;2023-04-03T13:55:25;85.93;;;54.22;;
69890;SDS011;57170;43.964;21.262;2023-04-03T13:57:57;31.70;;;26.17;;
69890;SDS011;57170;43.964;21.262;2023-04-03T14:00:28;28.00;;;23.00;;
69890;SDS011;57170;43.964;21.262;2023-04-03T14:02:55;31.85;;;21.98;;
69890;SDS011;57170;43.964;21.262;2023-04-03T14:05:22;32.53;;;22.77;;
69890;SDS011;57170;43.964;21.262;2023-04-03T14:07:50;29.27;;;23.55;;
69890;SDS011;57170;43.964;21.262;2023-04-03T14:10:16;23.23;;;19.20;;
69890;SDS011;57170;43.964;21.262;2023-04-03T14:12:42;27.23;;;20.98;;
69890;SDS011;57170;43.964;21.262;2023-04-03T14:15:15;27.35;;;18.42;;
69890;SDS011;57170;43.964;21.262;2023-04-03T14:17:43;26.92;;;22.20;;
69890;SDS011;57170;43.964;21.262;2023-04-03T14:20:19;30.98;;;23.50;;
69890;SDS011;57170;43.964;21.262;2023-04-03T14:22:46;31.60;;;22.98;;
69890;SDS011;57170;43.964;21.262;2023-04-03T14:25:13;33.10;;;26.88;;
69890;SDS011;57170;43.964;21.262;2023-04-03T14:27:41;30.88;;;22.42;;
69890;SDS011;57170;43.964;21.262;2023-04-03T14:30:11;28.27;;;21.25;;
69890;SDS011;57170;43.964;21.262;2023-04-03T14:32:38;39.08;;;26.40;;
69890;SDS011;57170;43.964;21.262;2023-04-03T14:35:05;37.33;;;25.08;;
69890;SDS011;57170;43.964;21.262;2023-04-03T14:37:31;32.88;;;22.65;;
69890;SDS011;57170;43.964;21.262;2023-04-03T14:39:59;25.23;;;21.40;;
69890;SDS011;57170;43.964;21.262;2023-04-03T14:42:32;31.85;;;25.52;;
69890;SDS011;57170;43.964;21.262;2023-04-03T14:47:25;23.33;;;17.30;;
69890;SDS011;57170;43.964;21.262;2023-04-03T14:49:52;20.63;;;16.70;;
69890;SDS011;57170;43.964;21.262;2023-04-03T14:52:26;21.60;;;15.60;;
69890;SDS011;57170;43.964;21.262;2023-04-03T14:54:52;19.60;;;15.80;;
69890;SDS011;57170;43.964;21.262;2023-04-03T14:57:19;23.50;;;18.27;;
69890;SDS011;57170;43.964;21.262;2023-04-03T14:59:45;25.55;;;19.15;;
69890;SDS011;57170;43.964;21.262;2023-04-03T15:02:28;20.17;;;15.98;;
69890;SDS011;57170;43.964;21.262;2023-04-03T15:04:54;21.55;;;15.88;;
69890;SDS011;57170;43.964;21.262;2023-04-03T15:07:21;20.75;;;17.02;;
69890;SDS011;57170;43.964;21.262;2023-04-03T15:09:48;22.88;;;17.25;;
69890;SDS011;57170;43.964;21.262;2023-04-03T15:12:14;19.33;;;15.48;;
69890;SDS011;57170;43.964;21.262;2023-04-03T15:14:40;26.95;;;19.45;;
69890;SDS011;57170;43.964;21.262;2023-04-03T15:17:06;20.27;;;14.65;;
69890;SDS011;57170;43.964;21.262;2023-04-03T15:19:37;23.25;;;15.80;;
69890;SDS011;57170;43.964;21.262;2023-04-03T15:22:03;27.60;;;19.90;;
69890;SDS011;57170;43.964;21.262;2023-04-03T15:24:29;21.65;;;16.27;;
69890;SDS011;57170;43.964;21.262;2023-04-03T15:26:56;24.05;;;16.17;;
69890;SDS011;57170;43.964;21.262;2023-04-03T15:29:22;26.35;;;16.38;;
69890;SDS011;57170;43.964;21.262;2023-04-03T15:31:48;25.30;;;17.10;;
69890;SDS011;57170;43.964;21.262;2023-04-03T15:34:17;24.67;;;16.60;;
69890;SDS011;57170;43.964;21.262;2023-04-03T15:36:43;22.25;;;16.35;;
69890;SDS011;57170;43.964;21.262;2023-04-03T15:39:09;33.35;;;19.00;;
69890;SDS011;57170;43.964;21.262;2023-04-03T15:41:35;29.77;;;22.48;;
69890;SDS011;57170;43.964;21.262;2023-04-03T15:44:02;31.63;;;22.58;;
69890;SDS011;57170;43.964;21.262;2023-04-03T15:46:28;24.67;;;17.58;;
69890;SDS011;57170;43.964;21.262;2023-04-03T15:48:54;26.60;;;16.73;;